createdAt,value
2018-10-11T00:00:46.771Z,0
2018-10-11T00:01:46.768Z,0
2018-10-11T00:02:46.753Z,0
2018-10-11T00:03:47.009Z,0
2018-10-11T00:04:46.998Z,0
2018-10-11T00:05:46.737Z,0
2018-10-11T00:06:46.986Z,0
2018-10-11T00:07:47.230Z,0
2018-10-11T00:08:47.221Z,0
2018-10-11T00:09:47.256Z,0
2018-10-11T00:10:46.944Z,0
2018-10-11T00:11:46.688Z,0
2018-10-11T00:12:46.668Z,0
2018-10-11T00:13:47.186Z,0
2018-10-11T00:14:47.161Z,0
2018-10-11T00:15:46.900Z,0
2018-10-11T00:16:46.889Z,0
2018-10-11T00:17:47.150Z,0
2018-10-11T00:18:47.132Z,0
2018-10-11T00:19:46.868Z,0
2018-10-11T00:20:46.860Z,0
2018-10-11T00:21:47.108Z,0
2018-10-11T00:22:46.852Z,0
2018-10-11T00:23:46.842Z,0
2018-10-11T00:24:47.090Z,0
2018-10-11T00:25:47.077Z,0
2018-10-11T00:26:46.553Z,0
2018-10-11T00:27:46.547Z,0
2018-10-11T00:28:47.056Z,0
2018-10-11T00:29:46.783Z,0
2018-10-11T00:30:47.399Z,0
2018-10-11T00:31:47.025Z,0
2018-10-11T00:32:47.017Z,0
2018-10-11T00:33:47.015Z,0
2018-10-11T00:34:46.994Z,0
2018-10-11T00:35:46.735Z,0
2018-10-11T00:36:46.465Z,0
2018-10-11T00:37:46.714Z,0
2018-10-11T00:38:46.970Z,0
2018-10-11T00:39:46.954Z,0
2018-10-11T00:40:46.945Z,0
2018-10-11T00:41:46.941Z,0
2018-10-11T00:42:46.935Z,0
2018-10-11T00:43:46.970Z,0
2018-10-11T00:44:46.915Z,0
2018-10-11T00:45:46.912Z,0
2018-10-11T00:46:46.889Z,0
2018-10-11T00:47:46.632Z,0
2018-10-11T00:48:46.886Z,0
2018-10-11T00:49:46.748Z,0
2018-10-11T00:50:46.860Z,0
2018-10-11T00:51:46.335Z,0
2018-10-11T00:52:46.591Z,0
2018-10-11T00:53:46.831Z,0
2018-10-11T00:54:46.821Z,0
2018-10-11T00:55:46.560Z,0
2018-10-11T00:56:46.816Z,0
2018-10-11T00:57:46.545Z,0
2018-10-11T00:58:46.797Z,0
2018-10-11T00:59:46.523Z,0
2018-10-11T01:00:46.772Z,0
2018-10-11T01:01:46.511Z,0
2018-10-11T01:02:46.753Z,0
2018-10-11T01:03:46.746Z,0
2018-10-11T01:04:46.233Z,0
2018-10-11T01:05:46.472Z,0
2018-10-11T01:06:46.474Z,0
2018-10-11T01:07:46.717Z,0
2018-10-11T01:08:46.456Z,0
2018-10-11T01:09:46.759Z,0
2018-10-11T01:10:46.695Z,0
2018-10-11T01:11:46.427Z,0
2018-10-11T01:12:46.420Z,0
2018-10-11T01:13:46.414Z,0
2018-10-11T01:14:46.403Z,0
2018-10-11T01:15:46.386Z,0
2018-10-11T01:16:46.386Z,0
2018-10-11T01:17:46.675Z,0
2018-10-11T01:18:46.365Z,0
2018-10-11T01:19:46.612Z,0
2018-10-11T01:20:46.341Z,0
2018-10-11T01:21:46.598Z,0
2018-10-11T01:22:46.590Z,0
2018-10-11T01:23:46.579Z,0
2018-10-11T01:24:46.329Z,0
2018-10-11T01:25:46.570Z,0
2018-10-11T01:26:46.300Z,0
2018-10-11T01:27:46.286Z,0
2018-10-11T01:28:46.542Z,0
2018-10-11T01:29:47.023Z,0
2018-10-11T01:30:46.268Z,0
2018-10-11T01:31:46.250Z,0
2018-10-11T01:32:46.501Z,0
2018-10-11T01:33:45.719Z,0
2018-10-11T01:34:45.976Z,0
2018-10-11T01:35:46.479Z,0
2018-10-11T01:36:46.474Z,0
2018-10-11T01:37:46.456Z,0
2018-10-11T01:38:46.755Z,0
2018-10-11T01:39:46.446Z,0
2018-10-11T01:40:46.172Z,0
2018-10-11T01:41:46.166Z,0
2018-10-11T01:42:46.417Z,0
2018-10-11T01:43:46.407Z,0
2018-10-11T01:44:46.142Z,0
2018-10-11T01:45:46.385Z,0
2018-10-11T01:46:45.868Z,0
2018-10-11T01:47:46.115Z,0
2018-10-11T01:48:46.111Z,0
2018-10-11T01:49:46.095Z,0
2018-10-11T01:50:45.829Z,0
2018-10-11T01:51:45.825Z,0
2018-10-11T01:52:46.072Z,0
2018-10-11T01:53:46.311Z,0
2018-10-11T01:54:46.043Z,0
2018-10-11T01:55:46.042Z,0
2018-10-11T01:56:46.845Z,0
2018-10-11T01:57:46.021Z,0
2018-10-11T01:58:46.013Z,0
2018-10-11T01:59:46.001Z,0
2018-10-11T02:00:45.735Z,0
2018-10-11T02:01:46.237Z,0
2018-10-11T02:02:45.975Z,0
2018-10-11T02:03:46.216Z,0
2018-10-11T02:04:45.951Z,0
2018-10-11T02:05:46.200Z,0
2018-10-11T02:06:45.934Z,0
2018-10-11T02:07:46.174Z,0
2018-10-11T02:08:46.168Z,0
2018-10-11T02:09:46.627Z,0
2018-10-11T02:10:46.154Z,0
2018-10-11T02:11:45.887Z,0
2018-10-11T02:12:46.135Z,0
2018-10-11T02:13:46.124Z,0
2018-10-11T02:14:46.113Z,0
2018-10-11T02:15:46.101Z,0
2018-10-11T02:16:46.108Z,0
2018-10-11T02:17:46.086Z,0
2018-10-11T02:18:46.087Z,0
2018-10-11T02:19:46.067Z,0
2018-10-11T02:20:46.050Z,0
2018-10-11T02:21:45.793Z,0
2018-10-11T02:22:45.529Z,0
2018-10-11T02:23:46.034Z,0
2018-10-11T02:24:45.766Z,0
2018-10-11T02:25:45.497Z,0
2018-10-11T02:26:45.751Z,0
2018-10-11T02:27:45.479Z,0
2018-10-11T02:28:45.728Z,0
2018-10-11T02:29:45.978Z,0
2018-10-11T02:30:45.708Z,0
2018-10-11T02:31:45.735Z,0
2018-10-11T02:32:45.943Z,0
2018-10-11T02:33:45.670Z,0
2018-10-11T02:34:45.924Z,0
2018-10-11T02:35:45.904Z,0
2018-10-11T02:36:45.642Z,0
2018-10-11T02:37:45.927Z,0
2018-10-11T02:38:45.878Z,0
2018-10-11T02:39:45.618Z,0
2018-10-11T02:40:45.863Z,0
2018-10-11T02:41:45.591Z,0
2018-10-11T02:42:46.015Z,0
2018-10-11T02:43:45.829Z,0
2018-10-11T02:44:45.565Z,0
2018-10-11T02:45:45.821Z,0
2018-10-11T02:46:45.326Z,0
2018-10-11T02:47:45.796Z,0
2018-10-11T02:48:45.020Z,0
2018-10-11T02:49:45.265Z,0
2018-10-11T02:50:45.513Z,0
2018-10-11T02:51:45.747Z,0
2018-10-11T02:52:45.760Z,0
2018-10-11T02:53:45.481Z,0
2018-10-11T02:54:45.735Z,0
2018-10-11T02:55:45.719Z,0
2018-10-11T02:56:45.709Z,0
2018-10-11T02:57:45.705Z,0
2018-10-11T02:58:45.441Z,0
2018-10-11T02:59:45.164Z,0
2018-10-11T03:00:45.167Z,0
2018-10-11T03:01:45.146Z,0
2018-10-11T03:02:45.647Z,0
2018-10-11T03:03:45.383Z,0
2018-10-11T03:04:45.377Z,0
2018-10-11T03:05:45.614Z,0
2018-10-11T03:06:45.637Z,0
2018-10-11T03:07:45.611Z,0
2018-10-11T03:08:45.332Z,0
2018-10-11T03:09:45.595Z,0
2018-10-11T03:10:45.573Z,0
2018-10-11T03:11:45.560Z,0
2018-10-11T03:12:45.549Z,0
2018-10-11T03:13:45.545Z,0
2018-10-11T03:14:45.535Z,0
2018-10-11T03:15:45.528Z,0
2018-10-11T03:16:45.256Z,0
2018-10-11T03:17:45.247Z,0
2018-10-11T03:18:45.239Z,0
2018-10-11T03:19:45.226Z,0
2018-10-11T03:20:45.219Z,0
2018-10-11T03:21:45.463Z,0
2018-10-11T03:22:45.459Z,0
2018-10-11T03:23:45.192Z,0
2018-10-11T03:24:45.179Z,0
2018-10-11T03:25:45.428Z,0
2018-10-11T03:26:45.161Z,0
2018-10-11T03:27:44.894Z,0
2018-10-11T03:28:45.152Z,0
2018-10-11T03:29:45.138Z,0
2018-10-11T03:30:45.379Z,0
2018-10-11T03:31:44.613Z,0
2018-10-11T03:32:45.097Z,0
2018-10-11T03:33:45.347Z,0
2018-10-11T03:34:45.098Z,0
2018-10-11T03:35:45.324Z,0
2018-10-11T03:36:45.312Z,0
2018-10-11T03:37:46.026Z,0
2018-10-11T03:38:45.052Z,0
2018-10-11T03:39:45.291Z,0
2018-10-11T03:40:45.288Z,0
2018-10-11T03:41:45.270Z,0
2018-10-11T03:42:45.264Z,0
2018-10-11T03:43:45.247Z,0
2018-10-11T03:44:44.988Z,0
2018-10-11T03:45:45.239Z,0
2018-10-11T03:46:45.635Z,0
2018-10-11T03:47:44.947Z,0
2018-10-11T03:48:45.196Z,0
2018-10-11T03:49:45.190Z,0
2018-10-11T03:50:45.176Z,0
2018-10-11T03:51:44.655Z,0
2018-10-11T03:52:45.152Z,0
2018-10-11T03:53:45.142Z,0
2018-10-11T03:54:44.885Z,0
2018-10-11T03:55:45.137Z,0
2018-10-11T03:56:45.115Z,0
2018-10-11T03:57:44.590Z,0
2018-10-11T03:58:45.094Z,0
2018-10-11T03:59:45.090Z,0
2018-10-11T04:00:45.081Z,0
2018-10-11T04:01:45.070Z,0
2018-10-11T04:02:44.544Z,0
2018-10-11T04:03:44.535Z,0
2018-10-11T04:04:45.044Z,0
2018-10-11T04:05:45.038Z,0
2018-10-11T04:06:44.503Z,0
2018-10-11T04:07:45.300Z,0
2018-10-11T04:08:44.998Z,0
2018-10-11T04:09:44.729Z,0
2018-10-11T04:10:44.721Z,0
2018-10-11T04:11:44.977Z,0
2018-10-11T04:12:44.952Z,0
2018-10-11T04:13:44.693Z,0
2018-10-11T04:14:44.687Z,0
2018-10-11T04:15:45.183Z,0
2018-10-11T04:16:44.923Z,0
2018-10-11T04:17:44.402Z,0
2018-10-11T04:18:44.888Z,0
2018-10-11T04:19:44.896Z,0
2018-10-11T04:20:44.883Z,0
2018-10-11T04:21:44.615Z,0
2018-10-11T04:22:44.854Z,0
2018-10-11T04:23:44.853Z,0
2018-10-11T04:24:44.833Z,0
2018-10-11T04:25:44.817Z,0
2018-10-11T04:26:44.567Z,0
2018-10-11T04:27:44.807Z,0
2018-10-11T04:28:44.796Z,0
2018-10-11T04:29:44.528Z,0
2018-10-11T04:30:44.526Z,0
2018-10-11T04:31:44.523Z,0
2018-10-11T04:32:44.549Z,0
2018-10-11T04:33:44.798Z,0
2018-10-11T04:34:44.476Z,0
2018-10-11T04:35:44.749Z,0
2018-10-11T04:36:44.719Z,0
2018-10-11T04:37:44.702Z,0
2018-10-11T04:38:44.444Z,0
2018-10-11T04:39:44.182Z,0
2018-10-11T04:40:44.680Z,0
2018-10-11T04:41:44.151Z,0
2018-10-11T04:42:44.640Z,0
2018-10-11T04:43:44.652Z,0
2018-10-11T04:44:44.375Z,0
2018-10-11T04:45:44.119Z,0
2018-10-11T04:46:44.614Z,0
2018-10-11T04:47:44.610Z,0
2018-10-11T04:48:44.602Z,0
2018-10-11T04:49:44.575Z,0
2018-10-11T04:50:44.316Z,0
2018-10-11T04:51:44.561Z,0
2018-10-11T04:52:44.553Z,0
2018-10-11T04:53:44.693Z,0
2018-10-11T04:54:44.535Z,0
2018-10-11T04:55:43.752Z,0
2018-10-11T04:56:44.550Z,0
2018-10-11T04:57:44.244Z,0
2018-10-11T04:58:44.237Z,0
2018-10-11T04:59:44.827Z,0
2018-10-11T05:00:43.966Z,0
2018-10-11T05:01:44.463Z,0
2018-10-11T05:02:44.203Z,0
2018-10-11T05:03:44.440Z,0
2018-10-11T05:04:43.924Z,0
2018-10-11T05:05:44.420Z,0
2018-10-11T05:06:44.163Z,0
2018-10-11T05:07:44.412Z,0
2018-10-11T05:08:44.399Z,0
2018-10-11T05:09:43.869Z,0
2018-10-11T05:10:43.853Z,0
2018-10-11T05:11:44.107Z,0
2018-10-11T05:12:44.092Z,0
2018-10-11T05:13:44.343Z,0
2018-10-11T05:14:44.330Z,0
2018-10-11T05:15:44.059Z,0
2018-10-11T05:16:44.055Z,0
2018-10-11T05:17:44.300Z,0
2018-10-11T05:18:44.041Z,0
2018-10-11T05:19:43.771Z,0
2018-10-11T05:20:44.273Z,0
2018-10-11T05:21:44.144Z,0
2018-10-11T05:22:44.254Z,5
2018-10-11T05:23:44.247Z,5
2018-10-11T05:24:43.980Z,5
2018-10-11T05:25:43.766Z,5
2018-10-11T05:26:43.959Z,5
2018-10-11T05:27:43.943Z,5
2018-10-11T05:28:43.706Z,5
2018-10-11T05:29:44.214Z,5
2018-10-11T05:30:43.920Z,10
2018-10-11T05:31:43.907Z,10
2018-10-11T05:32:43.896Z,10
2018-10-11T05:33:44.145Z,10
2018-10-11T05:34:44.137Z,10
2018-10-11T05:35:43.868Z,10
2018-10-11T05:36:43.599Z,15
2018-10-11T05:37:43.845Z,15
2018-10-11T05:38:43.835Z,15
2018-10-11T05:39:43.568Z,15
2018-10-11T05:40:43.815Z,15
2018-10-11T05:41:44.058Z,20
2018-10-11T05:42:43.817Z,20
2018-10-11T05:43:44.036Z,20
2018-10-11T05:44:44.013Z,20
2018-10-11T05:45:43.768Z,20
2018-10-11T05:46:43.765Z,20
2018-10-11T05:47:44.000Z,25
2018-10-11T05:48:43.999Z,25
2018-10-11T05:49:43.733Z,25
2018-10-11T05:50:43.989Z,25
2018-10-11T05:51:43.705Z,25
2018-10-11T05:52:43.952Z,30
2018-10-11T05:53:43.685Z,30
2018-10-11T05:54:43.948Z,30
2018-10-11T05:55:43.673Z,30
2018-10-11T05:56:43.920Z,30
2018-10-11T05:57:43.905Z,30
2018-10-11T05:58:43.647Z,35
2018-10-11T05:59:43.888Z,35
2018-10-11T06:00:43.620Z,35
2018-10-11T06:01:43.610Z,35
2018-10-11T06:02:43.597Z,35
2018-10-11T06:03:43.590Z,35
2018-10-11T06:04:43.597Z,40
2018-10-11T06:05:43.572Z,40
2018-10-11T06:06:43.565Z,40
2018-10-11T06:07:43.814Z,40
2018-10-11T06:08:43.798Z,40
2018-10-11T06:09:43.788Z,40
2018-10-11T06:10:43.532Z,45
2018-10-11T06:11:43.538Z,45
2018-10-11T06:12:43.511Z,45
2018-10-11T06:13:43.747Z,45
2018-10-11T06:14:43.489Z,45
2018-10-11T06:15:43.222Z,45
2018-10-11T06:16:43.218Z,45
2018-10-11T06:17:43.837Z,45
2018-10-11T06:18:43.194Z,50
2018-10-11T06:19:43.446Z,50
2018-10-11T06:20:43.429Z,50
2018-10-11T06:21:43.423Z,50
2018-10-11T06:22:43.163Z,50
2018-10-11T06:23:43.417Z,50
2018-10-11T06:24:43.606Z,50
2018-10-11T06:25:43.135Z,50
2018-10-11T06:26:43.369Z,55
2018-10-11T06:27:43.115Z,55
2018-10-11T06:28:43.360Z,55
2018-10-11T06:29:43.598Z,55
2018-10-11T06:30:43.337Z,55
2018-10-11T06:31:43.331Z,55
2018-10-11T06:32:43.325Z,55
2018-10-11T06:33:43.350Z,55
2018-10-11T06:34:43.299Z,55
2018-10-11T06:35:43.351Z,60
2018-10-11T06:36:43.656Z,60
2018-10-11T06:37:43.012Z,60
2018-10-11T06:38:43.259Z,60
2018-10-11T06:39:43.252Z,60
2018-10-11T06:40:43.243Z,60
2018-10-11T06:41:43.741Z,60
2018-10-11T06:42:44.005Z,60
2018-10-11T06:43:43.236Z,60
2018-10-11T06:44:43.471Z,60
2018-10-11T06:45:43.447Z,65
2018-10-11T06:46:43.204Z,65
2018-10-11T06:47:43.189Z,65
2018-10-11T06:48:43.424Z,65
2018-10-11T06:49:43.221Z,65
2018-10-11T06:50:43.408Z,65
2018-10-11T06:51:43.140Z,65
2018-10-11T06:52:43.131Z,65
2018-10-11T06:53:43.125Z,65
2018-10-11T06:54:43.107Z,65
2018-10-11T06:55:43.374Z,65
2018-10-11T06:56:43.091Z,70
2018-10-11T06:57:43.085Z,70
2018-10-11T06:58:43.331Z,70
2018-10-11T06:59:43.328Z,70
2018-10-11T07:00:43.365Z,70
2018-10-11T07:01:43.532Z,70
2018-10-11T07:02:43.044Z,70
2018-10-11T07:03:43.126Z,70
2018-10-11T07:04:43.277Z,70
2018-10-11T07:05:43.262Z,70
2018-10-11T07:06:42.749Z,70
2018-10-11T07:07:42.988Z,70
2018-10-11T07:08:43.246Z,70
2018-10-11T07:09:43.226Z,70
2018-10-11T07:10:43.227Z,75
2018-10-11T07:11:43.211Z,75
2018-10-11T07:12:43.210Z,75
2018-10-11T07:13:42.967Z,75
2018-10-11T07:14:42.934Z,75
2018-10-11T07:15:43.177Z,75
2018-10-11T07:16:43.179Z,75
2018-10-11T07:17:42.907Z,75
2018-10-11T07:18:43.148Z,75
2018-10-11T07:19:43.385Z,75
2018-10-11T07:20:43.129Z,75
2018-10-11T07:21:42.877Z,75
2018-10-11T07:22:42.855Z,75
2018-10-11T07:23:42.850Z,75
2018-10-11T07:24:42.846Z,75
2018-10-11T07:25:42.890Z,75
2018-10-11T07:26:43.079Z,75
2018-10-11T07:27:43.077Z,75
2018-10-11T07:28:42.558Z,75
2018-10-11T07:29:42.795Z,80
2018-10-11T07:30:43.044Z,80
2018-10-11T07:31:43.029Z,80
2018-10-11T07:32:43.025Z,80
2018-10-11T07:33:43.015Z,80
2018-10-11T07:34:43.229Z,80
2018-10-11T07:35:42.239Z,80
2018-10-11T07:36:42.483Z,80
2018-10-11T07:37:42.479Z,80
2018-10-11T07:38:43.003Z,80
2018-10-11T07:39:42.712Z,80
2018-10-11T07:40:43.421Z,80
2018-10-11T07:41:42.948Z,80
2018-10-11T07:42:42.946Z,80
2018-10-11T07:43:42.932Z,80
2018-10-11T07:44:42.922Z,80
2018-10-11T07:45:42.407Z,85
2018-10-11T07:46:42.398Z,85
2018-10-11T07:47:42.904Z,85
2018-10-11T07:48:42.383Z,85
2018-10-11T07:49:42.895Z,85
2018-10-11T07:50:42.887Z,85
2018-10-11T07:51:42.875Z,85
2018-10-11T07:52:42.162Z,85
2018-10-11T07:53:42.341Z,85
2018-10-11T07:54:42.864Z,85
2018-10-11T07:55:42.585Z,85
2018-10-11T07:56:42.831Z,85
2018-10-11T07:57:42.827Z,85
2018-10-11T07:58:42.302Z,85
2018-10-11T07:59:42.828Z,85
2018-10-11T08:00:42.549Z,85
2018-10-11T08:01:42.490Z,85
2018-10-11T08:02:42.785Z,85
2018-10-11T08:03:42.968Z,85
2018-10-11T08:04:42.772Z,85
2018-10-11T08:05:42.754Z,90
2018-10-11T08:06:42.492Z,90
2018-10-11T08:07:43.191Z,90
2018-10-11T08:08:42.349Z,90
2018-10-11T08:09:42.220Z,90
2018-10-11T08:10:43.134Z,90
2018-10-11T08:11:43.745Z,90
2018-10-11T08:12:42.734Z,90
2018-10-11T08:13:43.326Z,85
2018-10-11T08:14:42.457Z,90
2018-10-11T08:15:41.915Z,90
2018-10-11T08:16:43.776Z,90
2018-10-11T08:17:44.792Z,90
2018-10-11T08:18:42.977Z,90
2018-10-11T08:19:43.322Z,90
2018-10-11T08:20:43.196Z,90
2018-10-11T08:21:43.024Z,90
2018-10-11T08:22:42.389Z,90
2018-10-11T08:23:42.368Z,90
2018-10-11T08:24:42.896Z,90
2018-10-11T08:25:45.448Z,90
2018-10-11T08:26:42.562Z,90
2018-10-11T08:27:42.593Z,90
2018-10-11T08:28:42.079Z,90
2018-10-11T08:29:42.579Z,90
2018-10-11T08:30:42.068Z,90
2018-10-11T08:31:43.057Z,90
2018-10-11T08:32:43.053Z,90
2018-10-11T08:33:42.296Z,95
2018-10-11T08:34:42.288Z,95
2018-10-11T08:35:42.295Z,95
2018-10-11T08:36:42.535Z,95
2018-10-11T08:37:42.350Z,95
2018-10-11T08:38:43.308Z,95
2018-10-11T08:39:42.514Z,95
2018-10-11T08:40:42.262Z,95
2018-10-11T08:41:42.543Z,90
2018-10-11T08:42:42.243Z,90
2018-10-11T08:43:43.067Z,90
2018-10-11T08:44:42.228Z,90
2018-10-11T08:45:42.480Z,90
2018-10-11T08:46:42.221Z,90
2018-10-11T08:47:42.457Z,90
2018-10-11T08:48:41.946Z,90
2018-10-11T08:49:42.190Z,95
2018-10-11T08:50:42.435Z,95
2018-10-11T08:51:41.931Z,95
2018-10-11T08:52:42.433Z,95
2018-10-11T08:53:43.020Z,95
2018-10-11T08:54:42.422Z,95
2018-10-11T08:55:43.184Z,95
2018-10-11T08:56:42.164Z,95
2018-10-11T08:57:41.890Z,95
2018-10-11T08:58:42.404Z,95
2018-10-11T08:59:42.119Z,95
2018-10-11T09:00:42.380Z,95
2018-10-11T09:01:41.864Z,100
2018-10-11T09:02:42.383Z,100
2018-10-11T09:03:42.873Z,100
2018-10-11T09:04:42.362Z,100
2018-10-11T09:05:42.098Z,100
2018-10-11T09:06:42.353Z,100
2018-10-11T09:07:42.338Z,100
2018-10-11T09:08:42.079Z,100
2018-10-11T09:09:43.045Z,100
2018-10-11T09:10:48.581Z,100
2018-10-11T09:11:42.067Z,100
2018-10-11T09:12:41.814Z,100
2018-10-11T09:13:42.053Z,95
2018-10-11T09:14:42.057Z,100
2018-10-11T09:15:42.304Z,95
2018-10-11T09:16:42.042Z,95
2018-10-11T09:17:42.042Z,95
2018-10-11T09:18:42.029Z,95
2018-10-11T09:19:42.275Z,95
2018-10-11T09:20:42.016Z,95
2018-10-11T09:21:42.264Z,95
2018-10-11T09:22:42.278Z,95
2018-10-11T09:23:42.271Z,95
2018-10-11T09:24:41.742Z,95
2018-10-11T09:25:41.732Z,95
2018-10-11T09:26:41.986Z,100
2018-10-11T09:27:41.725Z,100
2018-10-11T09:28:41.730Z,100
2018-10-11T09:29:41.724Z,100
2018-10-11T09:30:41.962Z,100
2018-10-11T09:31:41.977Z,100
2018-10-11T09:32:41.960Z,100
2018-10-11T09:33:41.698Z,100
2018-10-11T09:34:42.214Z,100
2018-10-11T09:35:42.207Z,100
2018-10-11T09:36:42.776Z,100
2018-10-11T09:37:41.424Z,100
2018-10-11T09:38:41.933Z,100
2018-10-11T09:39:42.081Z,100
2018-10-11T09:40:41.927Z,100
2018-10-11T09:41:41.922Z,105
2018-10-11T09:42:42.172Z,105
2018-10-11T09:43:41.911Z,105
2018-10-11T09:44:42.154Z,105
2018-10-11T09:45:41.914Z,105
2018-10-11T09:46:41.898Z,105
2018-10-11T09:47:41.888Z,105
2018-10-11T09:48:42.295Z,105
2018-10-11T09:49:41.881Z,105
2018-10-11T09:50:41.873Z,105
2018-10-11T09:51:41.620Z,105
2018-10-11T09:52:41.621Z,105
2018-10-11T09:53:41.611Z,105
2018-10-11T09:54:42.313Z,105
2018-10-11T09:55:41.868Z,105
2018-10-11T09:56:41.606Z,105
2018-10-11T09:57:41.850Z,105
2018-10-11T09:58:41.593Z,105
2018-10-11T09:59:41.586Z,105
2018-10-11T10:00:41.879Z,105
2018-10-11T10:01:41.584Z,105
2018-10-11T10:02:41.832Z,105
2018-10-11T10:03:41.827Z,105
2018-10-11T10:04:41.594Z,105
2018-10-11T10:05:41.820Z,105
2018-10-11T10:06:41.560Z,105
2018-10-11T10:07:42.064Z,105
2018-10-11T10:08:41.812Z,105
2018-10-11T10:09:41.881Z,105
2018-10-11T10:10:42.067Z,105
2018-10-11T10:11:42.052Z,105
2018-10-11T10:12:42.106Z,105
2018-10-11T10:13:41.841Z,105
2018-10-11T10:14:41.276Z,105
2018-10-11T10:15:42.055Z,105
2018-10-11T10:16:41.786Z,105
2018-10-11T10:17:42.029Z,105
2018-10-11T10:18:41.778Z,105
2018-10-11T10:19:41.778Z,105
2018-10-11T10:20:42.042Z,105
2018-10-11T10:21:42.213Z,105
2018-10-11T10:22:41.766Z,105
2018-10-11T10:23:41.760Z,105
2018-10-11T10:24:41.766Z,105
2018-10-11T10:25:41.507Z,105
2018-10-11T10:26:42.254Z,105
2018-10-11T10:27:41.906Z,105
2018-10-11T10:28:41.745Z,105
2018-10-11T10:29:41.749Z,105
2018-10-11T10:30:41.995Z,105
2018-10-11T10:31:41.481Z,105
2018-10-11T10:32:41.480Z,105
2018-10-11T10:33:41.733Z,105
2018-10-11T10:34:41.993Z,105
2018-10-11T10:35:41.982Z,105
2018-10-11T10:36:41.729Z,105
2018-10-11T10:37:42.003Z,105
2018-10-11T10:38:41.975Z,105
2018-10-11T10:39:41.996Z,105
2018-10-11T10:40:41.974Z,105
2018-10-11T10:41:41.974Z,105
2018-10-11T10:42:41.960Z,105
2018-10-11T10:43:41.720Z,105
2018-10-11T10:44:41.448Z,105
2018-10-11T10:45:41.625Z,105
2018-10-11T10:46:41.693Z,105
2018-10-11T10:47:41.691Z,105
2018-10-11T10:48:42.024Z,105
2018-10-11T10:49:41.689Z,105
2018-10-11T10:50:41.504Z,105
2018-10-11T10:51:41.954Z,105
2018-10-11T10:52:41.432Z,105
2018-10-11T10:53:41.676Z,105
2018-10-11T10:54:41.935Z,100
2018-10-11T10:55:41.931Z,105
2018-10-11T10:56:41.941Z,105
2018-10-11T10:57:41.672Z,105
2018-10-11T10:58:41.674Z,105
2018-10-11T10:59:41.405Z,105
2018-10-11T11:00:41.912Z,105
2018-10-11T11:01:41.907Z,105
2018-10-11T11:02:41.405Z,105
2018-10-11T11:03:41.907Z,105
2018-10-11T11:04:41.907Z,100
2018-10-11T11:05:41.518Z,100
2018-10-11T11:06:41.907Z,100
2018-10-11T11:07:41.912Z,105
2018-10-11T11:08:41.392Z,100
2018-10-11T11:09:41.897Z,100
2018-10-11T11:10:41.893Z,100
2018-10-11T11:11:41.885Z,100
2018-10-11T11:12:41.634Z,100
2018-10-11T11:13:41.377Z,100
2018-10-11T11:14:41.888Z,100
2018-10-11T11:15:41.891Z,100
2018-10-11T11:16:41.872Z,100
2018-10-11T11:17:41.622Z,100
2018-10-11T11:18:41.888Z,100
2018-10-11T11:19:41.882Z,100
2018-10-11T11:20:41.469Z,100
2018-10-11T11:21:41.661Z,100
2018-10-11T11:22:41.869Z,100
2018-10-11T11:23:41.353Z,100
2018-10-11T11:24:41.881Z,100
2018-10-11T11:25:41.909Z,100
2018-10-11T11:26:41.868Z,100
2018-10-11T11:27:41.857Z,100
2018-10-11T11:28:41.393Z,100
2018-10-11T11:29:41.856Z,100
2018-10-11T11:30:41.845Z,100
2018-10-11T11:31:41.617Z,100
2018-10-11T11:32:41.891Z,100
2018-10-11T11:33:41.330Z,100
2018-10-11T11:34:41.636Z,100
2018-10-11T11:35:41.839Z,100
2018-10-11T11:36:41.327Z,100
2018-10-11T11:37:41.576Z,100
2018-10-11T11:38:41.831Z,100
2018-10-11T11:39:41.833Z,100
2018-10-11T11:40:41.825Z,100
2018-10-11T11:41:41.607Z,100
2018-10-11T11:42:41.824Z,100
2018-10-11T11:43:41.566Z,100
2018-10-11T11:44:41.310Z,100
2018-10-11T11:45:41.817Z,100
2018-10-11T11:46:41.564Z,100
2018-10-11T11:47:41.813Z,100
2018-10-11T11:48:41.560Z,95
2018-10-11T11:49:41.300Z,95
2018-10-11T11:50:42.274Z,95
2018-10-11T11:51:41.548Z,95
2018-10-11T11:52:41.290Z,95
2018-10-11T11:53:41.551Z,95
2018-10-11T11:54:41.544Z,95
2018-10-11T11:55:41.793Z,95
2018-10-11T11:56:41.538Z,95
2018-10-11T11:57:41.538Z,95
2018-10-11T11:58:41.790Z,95
2018-10-11T11:59:41.537Z,95
2018-10-11T12:00:41.416Z,95
2018-10-11T12:01:41.270Z,95
2018-10-11T12:02:41.451Z,95
2018-10-11T12:03:41.784Z,95
2018-10-11T12:04:41.520Z,95
2018-10-11T12:05:41.351Z,95
2018-10-11T12:06:41.260Z,95
2018-10-11T12:07:41.262Z,95
2018-10-11T12:08:41.517Z,95
2018-10-11T12:09:41.514Z,95
2018-10-11T12:10:42.396Z,95
2018-10-11T12:11:41.777Z,95
2018-10-11T12:12:41.509Z,95
2018-10-11T12:13:41.242Z,95
2018-10-11T12:14:41.511Z,95
2018-10-11T12:15:41.689Z,95
2018-10-11T12:16:42.200Z,95
2018-10-11T12:17:41.240Z,95
2018-10-11T12:18:41.235Z,95
2018-10-11T12:19:41.241Z,95
2018-10-11T12:20:41.798Z,95
2018-10-11T12:21:41.234Z,95
2018-10-11T12:22:41.747Z,95
2018-10-11T12:23:41.485Z,95
2018-10-11T12:24:41.793Z,95
2018-10-11T12:25:41.728Z,95
2018-10-11T12:26:41.483Z,95
2018-10-11T12:27:41.229Z,95
2018-10-11T12:28:42.337Z,90
2018-10-11T12:29:41.743Z,90
2018-10-11T12:30:40.957Z,90
2018-10-11T12:31:41.476Z,90
2018-10-11T12:32:41.462Z,90
2018-10-11T12:33:41.713Z,90
2018-10-11T12:34:41.711Z,90
2018-10-11T12:35:41.600Z,90
2018-10-11T12:36:42.012Z,90
2018-10-11T12:37:41.622Z,90
2018-10-11T12:38:41.790Z,90
2018-10-11T12:39:41.444Z,90
2018-10-11T12:40:41.737Z,90
2018-10-11T12:41:41.723Z,90
2018-10-11T12:42:41.833Z,90
2018-10-11T12:43:41.433Z,90
2018-10-11T12:44:41.187Z,90
2018-10-11T12:45:42.673Z,90
2018-10-11T12:46:48.712Z,90
2018-10-11T12:47:41.425Z,90
2018-10-11T12:48:41.433Z,90
2018-10-11T12:49:51.407Z,90
2018-10-11T12:50:41.689Z,90
2018-10-11T12:51:41.497Z,90
2018-10-11T12:52:41.422Z,90
2018-10-11T12:53:51.009Z,90
2018-10-11T12:54:41.412Z,90
2018-10-11T12:55:41.154Z,90
2018-10-11T12:56:41.621Z,90
2018-10-11T12:57:41.905Z,90
2018-10-11T12:58:41.654Z,90
2018-10-11T12:59:41.398Z,90
2018-10-11T13:00:41.740Z,90
2018-10-11T13:01:41.402Z,90
2018-10-11T13:02:41.508Z,90
2018-10-11T13:03:41.681Z,90
2018-10-11T13:04:41.646Z,90
2018-10-11T13:05:41.663Z,90
2018-10-11T13:06:41.639Z,90
2018-10-11T13:07:41.379Z,90
2018-10-11T13:08:41.381Z,90
2018-10-11T13:09:41.123Z,90
2018-10-11T13:10:41.684Z,90
2018-10-11T13:11:41.681Z,90
2018-10-11T13:12:45.450Z,90
2018-10-11T13:13:49.042Z,90
2018-10-11T13:14:41.630Z,90
2018-10-11T13:15:42.300Z,90
2018-10-11T13:16:41.360Z,90
2018-10-11T13:17:49.074Z,90
2018-10-11T13:18:41.617Z,90
2018-10-11T13:19:41.354Z,90
2018-10-11T13:20:41.127Z,90
2018-10-11T13:21:41.609Z,85
2018-10-11T13:22:41.389Z,85
2018-10-11T13:23:41.343Z,85
2018-10-11T13:24:44.763Z,85
2018-10-11T13:25:41.692Z,85
2018-10-11T13:26:41.601Z,85
2018-10-11T13:27:41.335Z,85
2018-10-11T13:28:41.681Z,85
2018-10-11T13:29:41.090Z,85
2018-10-11T13:30:41.225Z,85
2018-10-11T13:31:41.330Z,85
2018-10-11T13:32:41.573Z,85
2018-10-11T13:33:41.068Z,85
2018-10-11T13:34:41.099Z,85
2018-10-11T13:35:41.583Z,85
2018-10-11T13:36:41.581Z,85
2018-10-11T13:37:41.594Z,85
2018-10-11T13:38:41.312Z,85
2018-10-11T13:39:46.083Z,85
2018-10-11T13:40:41.972Z,85
2018-10-11T13:41:42.709Z,85
2018-10-11T13:42:41.447Z,85
2018-10-11T13:43:41.352Z,85
2018-10-11T13:44:41.609Z,85
2018-10-11T13:45:41.458Z,85
2018-10-11T13:46:41.550Z,85
2018-10-11T13:47:52.231Z,85
2018-10-11T13:48:41.653Z,85
2018-10-11T13:49:41.547Z,85
2018-10-11T13:50:41.618Z,85
2018-10-11T13:51:41.593Z,85
2018-10-11T13:52:41.532Z,85
2018-10-11T13:53:41.706Z,85
2018-10-11T13:54:41.272Z,85
2018-10-11T13:55:45.271Z,85
2018-10-11T13:56:41.263Z,85
2018-10-11T13:57:41.698Z,85
2018-10-11T13:58:41.069Z,85
2018-10-11T13:59:41.400Z,85
2018-10-11T14:00:41.747Z,85
2018-10-11T14:01:41.516Z,85
2018-10-11T14:02:41.521Z,85
2018-10-11T14:03:41.514Z,85
2018-10-11T14:04:42.179Z,85
2018-10-11T14:05:41.489Z,80
2018-10-11T14:06:41.499Z,80
2018-10-11T14:07:40.987Z,80
2018-10-11T14:08:40.988Z,80
2018-10-11T14:09:41.505Z,80
2018-10-11T14:10:41.679Z,80
2018-10-11T14:11:41.489Z,80
2018-10-11T14:12:41.233Z,80
2018-10-11T14:13:40.972Z,80
2018-10-11T14:14:41.227Z,80
2018-10-11T14:15:41.545Z,80
2018-10-11T14:16:40.705Z,80
2018-10-11T14:17:41.094Z,80
2018-10-11T14:18:40.961Z,80
2018-10-11T14:19:41.469Z,80
2018-10-11T14:20:41.345Z,80
2018-10-11T14:21:41.202Z,80